createdAt,value
2019-03-02T00:00:42.476Z,6.53
2019-03-02T00:03:14.256Z,6.77
2019-03-02T00:05:46.287Z,7.07
2019-03-02T00:08:18.133Z,7.10
2019-03-02T00:10:49.976Z,6.57
2019-03-02T00:13:21.823Z,7.27
2019-03-02T00:15:53.697Z,6.83
2019-03-02T00:18:25.904Z,6.97
2019-03-02T00:20:59.133Z,6.70
2019-03-02T00:23:31.083Z,7.07
2019-03-02T00:26:06.240Z,7.60
2019-03-02T00:28:36.537Z,6.73
2019-03-02T00:31:08.393Z,6.87
2019-03-02T00:33:40.287Z,7.23
2019-03-02T00:36:12.145Z,8.17
2019-03-02T00:38:44.370Z,7.47
2019-03-02T00:41:16.249Z,7.40
2019-03-02T00:43:48.772Z,7.33
2019-03-02T00:46:20.771Z,8.20
2019-03-02T00:48:54.576Z,7.73
2019-03-02T00:51:26.526Z,8.90
2019-03-02T00:53:58.355Z,8.43
2019-03-02T00:56:30.228Z,8.10
2019-03-02T00:59:04.104Z,9.03
2019-03-02T01:01:36.676Z,8.53
2019-03-02T01:04:08.541Z,9.27
2019-03-02T01:06:40.400Z,9.37
2019-03-02T01:09:13.087Z,8.30
2019-03-02T01:11:44.974Z,9.13
2019-03-02T01:14:16.861Z,8.53
2019-03-02T01:16:51.727Z,8.47
2019-03-02T01:19:22.284Z,8.30
2019-03-02T01:21:54.189Z,8.20
2019-03-02T01:24:26.052Z,8.43
2019-03-02T01:26:59.413Z,8.50
2019-03-02T01:29:31.506Z,8.63
2019-03-02T01:32:03.376Z,8.17
2019-03-02T01:34:35.223Z,7.57
2019-03-02T01:37:08.164Z,7.10
2019-03-02T01:39:40.724Z,6.27
2019-03-02T01:42:12.585Z,6.23
2019-03-02T01:44:44.477Z,6.10
2019-03-02T01:47:17.040Z,6.23
2019-03-02T01:49:48.977Z,5.63
2019-03-02T01:52:20.820Z,5.87
2019-03-02T01:54:55.756Z,5.87
2019-03-02T01:57:26.946Z,5.70
2019-03-02T01:59:58.766Z,6.50
2019-03-02T02:02:32.685Z,6.50
2019-03-02T02:05:04.367Z,6.47
2019-03-02T02:07:36.632Z,6.10
2019-03-02T02:10:11.991Z,7.93
2019-03-02T02:12:44.269Z,8.07
2019-03-02T02:15:18.859Z,8.20
2019-03-02T02:17:53.055Z,8.90
2019-03-02T02:20:24.329Z,8.83
2019-03-02T02:22:56.185Z,8.00
2019-03-02T02:25:28.053Z,9.50
2019-03-02T02:27:59.947Z,10.20
2019-03-02T02:30:31.902Z,10.93
2019-03-02T02:33:05.802Z,10.37
2019-03-02T02:35:40.302Z,11.07
2019-03-02T02:38:15.529Z,11.30
2019-03-02T02:40:44.586Z,9.97
2019-03-02T02:43:20.857Z,10.80
2019-03-02T02:45:53.634Z,10.50
2019-03-02T02:48:26.293Z,10.50
2019-03-02T02:50:57.357Z,11.53
2019-03-02T02:53:29.236Z,11.17
2019-03-02T02:56:01.065Z,11.50
2019-03-02T02:58:32.953Z,12.50
2019-03-02T03:01:04.825Z,13.47
2019-03-02T03:03:36.683Z,12.87
2019-03-02T03:06:08.574Z,13.13
2019-03-02T03:08:45.339Z,13.37
2019-03-02T03:11:18.708Z,13.73
2019-03-02T03:13:50.619Z,14.13
2019-03-02T03:16:22.466Z,14.33
2019-03-02T03:18:54.369Z,13.90
2019-03-02T03:21:28.130Z,14.10
2019-03-02T03:24:03.929Z,13.40
2019-03-02T03:26:35.286Z,14.23
2019-03-02T03:29:09.602Z,13.77
2019-03-02T03:31:40.531Z,13.80
2019-03-02T03:34:12.380Z,13.87
2019-03-02T03:36:44.244Z,14.07
2019-03-02T03:39:16.096Z,14.33
2019-03-02T03:41:47.947Z,13.77
2019-03-02T03:44:25.903Z,14.00
2019-03-02T03:46:56.140Z,14.57
2019-03-02T03:49:30.100Z,13.97
2019-03-02T03:52:04.042Z,14.50
2019-03-02T03:54:34.189Z,14.37
2019-03-02T03:57:06.065Z,15.23
2019-03-02T03:59:38.112Z,14.40
2019-03-02T04:02:09.980Z,15.07
2019-03-02T04:04:41.853Z,15.17
2019-03-02T04:07:13.667Z,14.73
2019-03-02T04:09:46.939Z,15.57
2019-03-02T04:12:19.886Z,15.00
2019-03-02T04:14:56.806Z,14.20
2019-03-02T04:17:26.319Z,14.97
2019-03-02T04:19:58.211Z,13.70
2019-03-02T04:22:30.140Z,14.00
2019-03-02T04:25:02.056Z,13.50
2019-03-02T04:27:33.964Z,13.50
2019-03-02T04:30:07.081Z,14.03
2019-03-02T04:32:38.995Z,14.73
2019-03-02T04:35:10.983Z,13.50
2019-03-02T04:37:42.848Z,13.70
2019-03-02T04:40:14.728Z,13.83
2019-03-02T04:42:50.062Z,13.10
2019-03-02T04:45:20.160Z,13.40
2019-03-02T04:47:52.051Z,13.47
2019-03-02T04:50:27.035Z,12.87
2019-03-02T04:52:57.461Z,13.00
2019-03-02T04:55:29.327Z,13.13
2019-03-02T04:58:01.260Z,13.13
2019-03-02T05:00:33.252Z,12.13
2019-03-02T05:03:05.129Z,12.57
2019-03-02T05:05:36.975Z,12.40
2019-03-02T05:08:08.909Z,13.17
2019-03-02T05:10:40.794Z,13.50
2019-03-02T05:13:12.769Z,13.33
2019-03-02T05:15:44.624Z,13.83
2019-03-02T05:18:18.117Z,14.27
2019-03-02T05:20:50.063Z,16.17
2019-03-02T05:23:21.919Z,16.17
2019-03-02T05:25:54.560Z,17.03
2019-03-02T05:28:39.709Z,16.43
2019-03-02T05:31:11.462Z,17.40
2019-03-02T05:33:43.295Z,17.13
2019-03-02T05:36:15.468Z,18.23
2019-03-02T05:38:47.326Z,17.97
2019-03-02T05:41:19.180Z,18.57
2019-03-02T05:43:51.011Z,18.93
2019-03-02T05:46:25.511Z,19.53
2019-03-02T05:48:56.475Z,20.83
2019-03-02T05:51:28.324Z,21.57
2019-03-02T05:54:02.679Z,21.30
2019-03-02T05:56:33.815Z,21.50
2019-03-02T05:59:05.683Z,23.17
2019-03-02T06:01:40.417Z,23.53
2019-03-02T06:04:11.184Z,24.53
2019-03-02T06:06:43.030Z,23.57
2019-03-02T06:09:14.928Z,24.20
2019-03-02T06:11:46.826Z,23.80
2019-03-02T06:14:18.692Z,24.47
2019-03-02T06:16:53.787Z,25.80
2019-03-02T06:19:24.352Z,26.53
2019-03-02T06:21:56.203Z,25.70
2019-03-02T06:24:28.085Z,27.07
2019-03-02T06:26:59.973Z,27.53
2019-03-02T06:29:32.757Z,27.67
2019-03-02T06:32:05.433Z,27.03
2019-03-02T06:34:37.667Z,28.03
2019-03-02T06:37:09.551Z,28.67
2019-03-02T06:39:44.463Z,29.13
2019-03-02T06:42:15.070Z,29.27
2019-03-02T06:44:46.957Z,29.90
2019-03-02T06:47:18.812Z,29.97
2019-03-02T06:49:53.146Z,28.87
2019-03-02T06:52:25.486Z,30.03
2019-03-02T06:54:58.053Z,29.27
2019-03-02T06:57:29.921Z,30.50
2019-03-02T07:00:01.815Z,30.53
2019-03-02T07:02:35.146Z,31.37
2019-03-02T07:05:07.893Z,31.83
2019-03-02T07:07:39.848Z,31.27
2019-03-02T07:10:17.852Z,30.80
2019-03-02T07:12:48.831Z,30.97
2019-03-02T07:15:20.658Z,31.07
2019-03-02T07:18:05.741Z,29.83
2019-03-02T07:20:36.034Z,29.60
2019-03-02T07:23:07.880Z,30.03
2019-03-02T07:25:40.847Z,30.30
2019-03-02T07:28:13.419Z,29.60
2019-03-02T07:30:45.341Z,27.77
2019-03-02T07:33:17.243Z,29.33
2019-03-02T07:35:51.738Z,28.13
2019-03-02T07:38:22.816Z,28.80
2019-03-02T07:40:54.828Z,27.30
2019-03-02T07:43:26.710Z,26.20
2019-03-02T07:45:58.644Z,27.17
2019-03-02T07:48:33.052Z,26.50
2019-03-02T07:51:05.172Z,25.50
2019-03-02T07:53:38.026Z,26.27
2019-03-02T07:56:09.862Z,24.97
2019-03-02T07:58:41.762Z,24.50
2019-03-02T08:01:16.648Z,24.47
2019-03-02T08:03:49.615Z,27.23
2019-03-02T08:06:21.848Z,25.10
2019-03-02T08:08:55.099Z,24.33
2019-03-02T08:11:27.079Z,23.73
2019-03-02T08:13:59.003Z,24.70
2019-03-02T08:16:30.910Z,25.40
2019-03-02T08:19:03.897Z,26.93
2019-03-02T08:21:36.889Z,25.60
2019-03-02T08:24:09.142Z,27.03
2019-03-02T08:26:41.016Z,24.87
2019-03-02T08:29:12.925Z,25.83
2019-03-02T08:31:45.652Z,26.30
2019-03-02T08:34:17.704Z,25.33
2019-03-02T08:36:50.389Z,26.30
2019-03-02T08:39:23.194Z,26.10
2019-03-02T08:41:55.098Z,26.20
2019-03-02T08:44:26.996Z,26.67
2019-03-02T08:46:58.901Z,27.90
2019-03-02T08:49:30.757Z,27.60
2019-03-02T08:52:02.714Z,29.20
2019-03-02T08:54:34.567Z,27.77
2019-03-02T08:57:06.449Z,27.87
2019-03-02T08:59:38.850Z,26.90
2019-03-02T09:02:10.813Z,26.67
2019-03-02T09:04:42.730Z,28.03
2019-03-02T09:07:14.762Z,28.43
2019-03-02T09:09:46.619Z,27.33
2019-03-02T09:12:21.916Z,27.53
2019-03-02T09:14:52.005Z,28.87
2019-03-02T09:17:23.914Z,29.17
2019-03-02T09:19:59.571Z,29.00
2019-03-02T09:22:29.348Z,28.90
2019-03-02T09:25:01.210Z,29.57
2019-03-02T09:27:33.130Z,29.33
2019-03-02T09:30:06.211Z,28.27
2019-03-02T09:32:38.070Z,30.23
2019-03-02T09:35:12.930Z,27.90
2019-03-02T09:37:44.821Z,27.37
2019-03-02T09:40:19.586Z,27.07
2019-03-02T09:42:51.694Z,28.03
2019-03-02T09:45:23.739Z,27.87
2019-03-02T09:47:55.607Z,27.53
2019-03-02T09:50:27.596Z,27.73
2019-03-02T09:52:59.913Z,27.70
2019-03-02T09:55:31.774Z,27.73
2019-03-02T09:58:03.638Z,27.97
2019-03-02T10:00:36.059Z,28.43
2019-03-02T10:03:08.041Z,28.03
2019-03-02T10:05:39.951Z,29.57
2019-03-02T10:08:13.261Z,28.83
2019-03-02T10:10:45.387Z,28.23
2019-03-02T10:13:17.315Z,28.63
2019-03-02T10:15:49.179Z,27.53
2019-03-02T10:18:21.066Z,28.30
2019-03-02T10:20:52.926Z,28.43
2019-03-02T10:23:24.825Z,28.10
2019-03-02T10:25:58.068Z,28.23
2019-03-02T10:28:33.813Z,27.87
2019-03-02T10:31:06.136Z,28.80
2019-03-02T10:33:37.173Z,26.73
2019-03-02T10:36:09.054Z,25.90
2019-03-02T10:38:40.876Z,27.43
2019-03-02T10:41:12.737Z,26.83
2019-03-02T10:43:45.590Z,27.30
2019-03-02T10:46:17.617Z,27.53
2019-03-02T10:48:49.468Z,27.37
2019-03-02T10:51:21.337Z,26.37
2019-03-02T10:53:55.818Z,26.63
2019-03-02T10:56:26.789Z,26.83
2019-03-02T10:58:58.644Z,25.53
2019-03-02T11:01:30.502Z,24.57
2019-03-02T11:04:10.763Z,23.37
2019-03-02T11:06:54.705Z,21.90
2019-03-02T11:09:45.411Z,21.00
2019-03-02T11:12:27.904Z,22.00
2019-03-02T11:15:10.661Z,22.13
2019-03-02T11:17:48.709Z,20.67
2019-03-02T11:20:30.245Z,20.03
2019-03-02T11:23:23.008Z,19.63
2019-03-02T11:26:08.909Z,19.07
2019-03-02T11:28:57.101Z,18.63
2019-03-02T11:31:50.836Z,18.23
2019-03-02T11:38:46.560Z,17.70
2019-03-02T11:41:40.230Z,17.43
2019-03-02T11:44:27.569Z,17.07
2019-03-02T11:47:21.382Z,16.50
2019-03-02T11:50:03.884Z,17.27
2019-03-02T11:53:15.627Z,16.77
2019-03-02T11:55:53.592Z,17.70
2019-03-02T11:58:43.093Z,16.53
2019-03-02T12:01:47.172Z,16.00
2019-03-02T12:04:40.161Z,15.20
2019-03-02T12:07:20.331Z,16.30
2019-03-02T12:10:01.000Z,16.27
2019-03-02T12:12:51.368Z,16.30
2019-03-02T12:15:49.258Z,15.17
2019-03-02T12:18:41.335Z,15.47
2019-03-02T12:21:37.993Z,15.60
2019-03-02T12:24:25.828Z,14.67
2019-03-02T12:27:08.494Z,14.80
2019-03-02T12:29:51.380Z,14.90
2019-03-02T12:32:45.842Z,14.03
2019-03-02T12:35:47.128Z,13.43
2019-03-02T12:38:49.850Z,12.83
2019-03-02T12:41:43.618Z,13.70
2019-03-02T12:44:28.982Z,13.60
2019-03-02T12:47:25.842Z,13.43
2019-03-02T12:50:07.872Z,13.63
2019-03-02T12:52:51.829Z,12.50
2019-03-02T12:55:45.699Z,12.90
2019-03-02T12:58:28.385Z,12.03
2019-03-02T13:01:22.049Z,13.27
2019-03-02T13:04:24.929Z,13.17
2019-03-02T13:07:24.558Z,13.00
2019-03-02T13:10:15.164Z,13.03
2019-03-02T13:13:09.555Z,12.17
2019-03-02T13:16:00.348Z,12.90
2019-03-02T13:18:41.604Z,11.50
2019-03-02T13:21:38.551Z,12.73
2019-03-02T13:24:27.903Z,11.83
2019-03-02T13:27:30.653Z,11.10
2019-03-02T13:30:14.606Z,10.03
2019-03-02T13:33:00.315Z,11.20
2019-03-02T13:35:37.540Z,10.60
2019-03-02T13:38:30.166Z,11.40
2019-03-02T13:41:17.415Z,11.50
2019-03-02T13:44:02.099Z,11.20
2019-03-02T13:46:40.372Z,12.27
2019-03-02T13:49:33.937Z,11.60
2019-03-02T13:52:40.346Z,11.77
2019-03-02T13:55:21.592Z,12.27
2019-03-02T13:58:02.393Z,12.53
2019-03-02T14:00:44.198Z,12.83
2019-03-02T14:03:40.093Z,11.73
2019-03-02T14:06:37.747Z,13.10
2019-03-02T14:09:28.954Z,12.73
2019-03-02T14:12:15.954Z,12.50
2019-03-02T14:15:12.369Z,12.13
2019-03-02T14:18:07.496Z,13.87
2019-03-02T14:20:49.174Z,12.67
2019-03-02T14:23:32.096Z,11.97
2019-03-02T14:26:20.831Z,12.97
2019-03-02T14:28:59.039Z,12.67
2019-03-02T14:31:37.935Z,12.20
2019-03-02T14:34:26.719Z,13.03
2019-03-02T14:37:03.730Z,12.67
2019-03-02T14:39:57.249Z,12.90
2019-03-02T14:42:51.044Z,11.97
2019-03-02T14:45:59.698Z,12.30
2019-03-02T14:48:49.493Z,11.87
2019-03-02T14:51:39.561Z,11.13
2019-03-02T14:54:30.315Z,12.53
2019-03-02T14:57:11.584Z,11.60
2019-03-02T15:00:08.563Z,11.20
2019-03-02T15:02:57.699Z,11.50
2019-03-02T15:05:39.835Z,11.70
2019-03-02T15:08:21.409Z,11.57
2019-03-02T15:11:00.420Z,11.20
2019-03-02T15:13:38.538Z,10.07
2019-03-02T15:16:32.502Z,10.03
2019-03-02T15:19:16.808Z,9.70
2019-03-02T15:22:13.804Z,9.83
2019-03-02T15:24:57.079Z,9.87
2019-03-02T15:27:43.693Z,9.30
2019-03-02T15:30:37.460Z,10.00
2019-03-02T15:33:23.580Z,10.63
2019-03-02T15:36:14.340Z,10.20
2019-03-02T15:39:17.348Z,10.27
2019-03-02T15:42:08.273Z,9.73
2019-03-02T15:44:57.645Z,9.80
2019-03-02T15:47:50.739Z,9.00
2019-03-02T15:50:39.113Z,9.30
2019-03-02T15:53:20.336Z,8.70
2019-03-02T15:55:57.520Z,8.50
2019-03-02T15:58:47.181Z,9.43
2019-03-02T16:01:35.170Z,9.00
2019-03-02T16:04:24.707Z,8.47
2019-03-02T16:07:15.459Z,8.87
2019-03-02T16:10:18.344Z,8.00
2019-03-02T16:13:21.079Z,9.27
2019-03-02T16:16:01.173Z,7.80
2019-03-02T16:18:54.974Z,8.53
2019-03-02T16:21:33.033Z,8.70
2019-03-02T16:24:29.463Z,8.83
2019-03-02T16:27:13.370Z,8.73
2019-03-02T16:30:04.750Z,8.93
2019-03-02T16:32:45.583Z,9.03
2019-03-02T16:35:48.462Z,9.73
2019-03-02T16:38:42.264Z,10.03
2019-03-02T16:41:25.499Z,10.27
2019-03-02T16:44:21.452Z,9.80
2019-03-02T16:47:20.893Z,10.67
2019-03-02T16:50:05.381Z,9.90
2019-03-02T16:53:07.889Z,9.80
2019-03-02T16:55:56.847Z,10.97
2019-03-02T16:58:53.448Z,10.33
2019-03-02T17:01:47.867Z,10.30
2019-03-02T17:04:35.776Z,10.00
2019-03-02T17:07:27.586Z,9.87
2019-03-02T17:10:20.085Z,10.67
2019-03-02T17:13:05.769Z,10.50
2019-03-02T17:15:49.191Z,10.13
2019-03-02T17:18:34.344Z,9.33
2019-03-02T17:21:30.034Z,9.43
2019-03-02T17:24:23.065Z,9.07
2019-03-02T17:27:30.113Z,9.00
2019-03-02T17:30:17.742Z,9.37
2019-03-02T17:33:23.028Z,7.97
2019-03-02T17:36:05.727Z,9.67
2019-03-02T17:39:02.260Z,9.17
2019-03-02T17:41:51.383Z,8.80
2019-03-02T17:44:46.525Z,8.83
2019-03-02T17:47:39.585Z,8.77
2019-03-02T17:50:28.564Z,9.33
2019-03-02T17:53:10.138Z,9.07
2019-03-02T17:55:56.022Z,9.17
2019-03-02T17:58:52.384Z,8.87
2019-03-02T18:01:32.294Z,8.97
2019-03-02T18:04:31.755Z,9.20
2019-03-02T18:07:29.478Z,9.17
2019-03-02T18:10:18.214Z,9.27
2019-03-02T18:13:20.573Z,8.90
2019-03-02T18:16:00.309Z,8.27
2019-03-02T18:18:31.878Z,8.70
2019-03-02T18:21:02.902Z,9.37
2019-03-02T18:23:34.179Z,9.20
2019-03-02T18:26:05.446Z,8.73
2019-03-02T18:28:36.711Z,9.57
2019-03-02T18:31:08.175Z,9.97
2019-03-02T18:33:47.722Z,10.43
2019-03-02T18:36:18.544Z,10.63
2019-03-02T18:38:50.380Z,11.00
2019-03-02T18:41:21.801Z,10.80
2019-03-02T18:43:53.456Z,10.80
2019-03-02T18:46:24.734Z,9.37
2019-03-02T18:49:20.746Z,10.13
2019-03-02T18:52:09.618Z,9.43
2019-03-02T18:54:49.089Z,9.67
2019-03-02T18:57:16.239Z,10.10
2019-03-02T18:59:48.121Z,9.60
2019-03-02T19:02:20.006Z,9.57
2019-03-02T19:04:54.647Z,10.30
2019-03-02T19:07:25.787Z,11.40
2019-03-02T19:09:57.296Z,10.27
2019-03-02T19:12:32.278Z,9.90
2019-03-02T19:15:02.172Z,9.70
2019-03-02T19:17:42.963Z,8.93
2019-03-02T19:20:14.820Z,8.60
2019-03-02T19:22:46.563Z,8.07
2019-03-02T19:25:18.134Z,8.80
2019-03-02T19:27:49.673Z,8.60
2019-03-02T19:30:21.542Z,8.50
2019-03-02T19:32:53.441Z,7.90
2019-03-02T19:35:24.819Z,7.83
2019-03-02T19:37:56.154Z,7.77
2019-03-02T19:40:29.469Z,7.87
2019-03-02T19:43:00.843Z,7.63
2019-03-02T19:45:32.180Z,8.00
2019-03-02T19:48:03.547Z,8.27
2019-03-02T19:50:35.212Z,8.03
2019-03-02T19:53:07.203Z,7.90
2019-03-02T19:55:38.839Z,6.83
2019-03-02T19:58:10.784Z,7.70
2019-03-02T20:00:42.896Z,7.23
2019-03-02T20:03:14.259Z,7.20
2019-03-02T20:05:45.639Z,7.23
2019-03-02T20:08:17.168Z,6.93
2019-03-02T20:10:48.520Z,7.37
2019-03-02T20:13:19.865Z,7.50
2019-03-02T20:15:51.262Z,8.00
2019-03-02T20:18:22.576Z,7.97
2019-03-02T20:20:53.847Z,9.17
2019-03-02T20:23:25.264Z,8.03
2019-03-02T20:25:56.596Z,8.10
2019-03-02T20:28:27.941Z,7.90
2019-03-02T20:30:59.248Z,7.60
2019-03-02T20:33:30.595Z,8.17
2019-03-02T20:36:01.882Z,8.10
2019-03-02T20:38:33.174Z,7.57
2019-03-02T20:41:04.611Z,7.70
2019-03-02T20:43:35.958Z,7.77
2019-03-02T20:46:07.366Z,7.50
2019-03-02T20:48:38.627Z,7.77
2019-03-02T20:51:09.962Z,8.30
2019-03-02T20:53:41.260Z,8.00
2019-03-02T20:56:12.595Z,7.77
2019-03-02T20:58:43.868Z,8.03
2019-03-02T21:01:15.222Z,7.67
2019-03-02T21:03:46.531Z,7.20
2019-03-02T21:06:17.828Z,7.93
2019-03-02T21:08:49.360Z,7.63
2019-03-02T21:11:20.599Z,7.03
2019-03-02T21:13:52.100Z,6.27
2019-03-02T21:16:23.410Z,6.93
2019-03-02T21:18:54.742Z,7.33
2019-03-02T21:21:26.047Z,6.50
2019-03-02T21:23:58.175Z,6.77
2019-03-02T21:26:29.525Z,6.20
2019-03-02T21:29:00.881Z,6.40
2019-03-02T21:31:33.071Z,6.03
2019-03-02T21:34:04.479Z,5.13
2019-03-02T21:36:35.846Z,5.33
2019-03-02T21:39:08.714Z,4.60
2019-03-02T21:41:40.087Z,4.87
2019-03-02T21:44:11.457Z,5.30
2019-03-02T21:46:42.791Z,4.67
2019-03-02T21:49:14.291Z,4.33
2019-03-02T21:51:45.613Z,4.43
2019-03-02T21:54:16.932Z,4.00
2019-03-02T21:56:48.282Z,4.10
2019-03-02T21:59:19.602Z,3.83
2019-03-02T22:01:50.923Z,4.00
2019-03-02T22:04:22.255Z,3.70
2019-03-02T22:06:53.513Z,4.00
2019-03-02T22:09:24.840Z,4.40
2019-03-02T22:11:56.160Z,3.87
2019-03-02T22:14:27.500Z,3.70
2019-03-02T22:17:00.595Z,4.43
2019-03-02T22:19:31.885Z,4.27
2019-03-02T22:22:03.128Z,3.80
2019-03-02T22:24:34.382Z,3.73
2019-03-02T22:27:08.876Z,3.73
2019-03-02T22:29:42.904Z,3.03
2019-03-02T22:32:14.154Z,4.03
2019-03-02T22:34:45.397Z,3.40
2019-03-02T22:37:16.700Z,3.90
2019-03-02T22:39:48.009Z,3.63
2019-03-02T22:42:19.270Z,3.13
2019-03-02T22:44:50.606Z,3.53
2019-03-02T22:47:22.971Z,3.40
2019-03-02T22:49:54.569Z,3.20
2019-03-02T22:52:25.797Z,2.97
2019-03-02T22:54:57.079Z,3.53
2019-03-02T22:57:28.328Z,3.23
2019-03-02T23:01:01.749Z,3.70
2019-03-02T23:03:30.565Z,4.30
2019-03-02T23:06:02.042Z,4.70
2019-03-02T23:08:33.324Z,4.83
2019-03-02T23:11:04.654Z,5.10
2019-03-02T23:13:35.938Z,5.60
2019-03-02T23:16:07.271Z,5.90
2019-03-02T23:18:38.558Z,6.23
2019-03-02T23:21:09.863Z,6.30
2019-03-02T23:23:41.123Z,6.67
2019-03-02T23:26:12.456Z,6.37
2019-03-02T23:28:43.725Z,6.47
2019-03-02T23:31:15.559Z,5.80
2019-03-02T23:33:46.867Z,6.00
2019-03-02T23:36:18.174Z,6.10
2019-03-02T23:38:49.436Z,5.83
2019-03-02T23:41:20.821Z,5.63
2019-03-02T23:47:54.160Z,5.80
2019-03-02T23:50:25.403Z,6.47
2019-03-02T23:52:56.655Z,5.73
2019-03-02T23:55:27.919Z,5.80
2019-03-02T23:57:59.240Z,5.07
